METAR Data
IDs: Format: Raw Decoded Include TAF

Data at: 0305 UTC 24 Jun 2021

KLAR 240253Z AUTO 30012KT 10SM CLR 21/M03 A3016 RMK AO2 SLP080 T02061033 51009